createdAt,value
2023-04-09T00:01:13.549Z,100.00
2023-04-09T00:03:41.411Z,100.00
2023-04-09T00:06:14.723Z,100.00
2023-04-09T00:08:42.428Z,100.00
2023-04-09T00:11:10.357Z,100.00
2023-04-09T00:13:43.394Z,100.00
2023-04-09T00:16:11.183Z,100.00
2023-04-09T00:18:38.974Z,100.00
2023-04-09T00:21:11.318Z,100.00
2023-04-09T00:23:39.916Z,100.00
2023-04-09T00:26:07.804Z,100.00
2023-04-09T00:28:37.944Z,100.00
2023-04-09T00:31:07.404Z,100.00
2023-04-09T00:33:35.323Z,100.00
2023-04-09T00:36:04.956Z,100.00
2023-04-09T00:38:34.998Z,100.00
2023-04-09T00:41:02.739Z,100.00
2023-04-09T00:43:32.617Z,100.00
2023-04-09T00:46:03.012Z,100.00
2023-04-09T00:48:31.941Z,100.00
2023-04-09T00:51:01.823Z,100.00
2023-04-09T00:53:31.923Z,100.00
2023-04-09T00:55:59.780Z,100.00
2023-04-09T00:58:27.625Z,100.00
2023-04-09T01:00:57.653Z,100.00
2023-04-09T01:03:25.822Z,100.00
2023-04-09T01:06:18.331Z,100.00
2023-04-09T01:08:52.820Z,100.00
2023-04-09T01:11:32.365Z,100.00
2023-04-09T01:14:09.785Z,100.00
2023-04-09T01:16:47.840Z,100.00
2023-04-09T01:19:27.734Z,100.00
2023-04-09T01:22:01.873Z,100.00
2023-04-09T01:24:42.643Z,100.00
2023-04-09T01:27:16.509Z,100.00
2023-04-09T01:29:48.809Z,100.00
2023-04-09T01:32:19.781Z,100.00
2023-04-09T01:34:48.848Z,100.00
2023-04-09T01:37:18.226Z,100.00
2023-04-09T01:39:50.336Z,100.00
2023-04-09T01:42:19.510Z,100.00
2023-04-09T01:44:49.819Z,100.00
2023-04-09T01:47:19.496Z,100.00
2023-04-09T01:49:47.586Z,100.00
2023-04-09T01:52:17.600Z,100.00
2023-04-09T01:54:47.188Z,100.00
2023-04-09T01:57:14.915Z,100.00
2023-04-09T01:59:42.803Z,100.00
2023-04-09T02:02:20.714Z,100.00
2023-04-09T02:04:58.705Z,100.00
2023-04-09T02:07:35.350Z,100.00
2023-04-09T02:10:07.765Z,100.00
2023-04-09T02:12:40.326Z,100.00
2023-04-09T02:15:09.623Z,100.00
2023-04-09T02:17:41.166Z,100.00
2023-04-09T02:20:10.382Z,100.00
2023-04-09T02:22:38.104Z,100.00
2023-04-09T02:25:08.415Z,100.00
2023-04-09T02:27:40.428Z,100.00
2023-04-09T02:30:09.448Z,100.00
2023-04-09T02:32:38.595Z,100.00
2023-04-09T02:35:10.793Z,100.00
2023-04-09T02:37:38.499Z,100.00
2023-04-09T02:40:07.035Z,100.00
2023-04-09T02:42:41.254Z,100.00
2023-04-09T02:45:10.059Z,100.00
2023-04-09T02:47:39.163Z,100.00
2023-04-09T02:50:11.652Z,100.00
2023-04-09T02:52:39.368Z,100.00
2023-04-09T02:55:08.302Z,100.00
2023-04-09T02:57:42.255Z,100.00
2023-04-09T03:00:11.252Z,100.00
2023-04-09T03:02:40.538Z,100.00
2023-04-09T03:05:12.851Z,100.00
2023-04-09T03:07:40.584Z,100.00
2023-04-09T03:10:08.989Z,100.00
2023-04-09T03:12:42.980Z,100.00
2023-04-09T03:15:11.623Z,100.00
2023-04-09T03:17:41.148Z,100.00
2023-04-09T03:20:13.492Z,100.00
2023-04-09T03:22:41.271Z,100.00
2023-04-09T03:25:10.000Z,100.00
2023-04-09T03:27:44.356Z,100.00
2023-04-09T03:30:13.072Z,100.00
2023-04-09T03:32:42.274Z,100.00
2023-04-09T03:35:14.518Z,100.00
2023-04-09T03:37:42.264Z,100.00
2023-04-09T03:40:10.899Z,100.00
2023-04-09T03:42:45.629Z,100.00
2023-04-09T03:45:13.297Z,100.00
2023-04-09T03:47:42.422Z,100.00
2023-04-09T03:50:14.270Z,100.00
2023-04-09T03:52:41.984Z,100.00
2023-04-09T03:55:11.088Z,100.00
2023-04-09T03:57:42.853Z,100.00
2023-04-09T04:00:11.040Z,100.00
2023-04-09T04:02:39.005Z,100.00
2023-04-09T04:05:11.805Z,100.00
2023-04-09T04:07:39.545Z,100.00
2023-04-09T04:10:08.489Z,100.00
2023-04-09T04:12:40.586Z,100.00
2023-04-09T04:15:09.342Z,100.00
2023-04-09T04:17:37.084Z,100.00
2023-04-09T04:20:11.678Z,100.00
2023-04-09T04:22:39.380Z,100.00
2023-04-09T04:25:07.650Z,100.00
2023-04-09T04:27:39.508Z,100.00
2023-04-09T04:30:08.628Z,100.00
2023-04-09T04:32:36.471Z,100.00
2023-04-09T04:35:10.097Z,100.00
2023-04-09T04:37:37.806Z,100.00
2023-04-09T04:40:06.510Z,100.00
2023-04-09T04:42:38.455Z,100.00
2023-04-09T04:45:09.198Z,100.00
2023-04-09T04:47:36.928Z,100.00
2023-04-09T04:50:06.864Z,100.00
2023-04-09T04:52:38.826Z,100.00
2023-04-09T04:55:09.352Z,100.00
2023-04-09T04:57:39.094Z,100.00
2023-04-09T05:00:08.715Z,100.00
2023-04-09T05:02:38.481Z,100.00
2023-04-09T05:05:07.045Z,100.00
2023-04-09T05:07:37.614Z,100.00
2023-04-09T05:10:07.905Z,100.00
2023-04-09T05:12:35.607Z,100.00
2023-04-09T05:15:07.025Z,100.00
2023-04-09T05:17:34.792Z,100.00
2023-04-09T05:20:02.844Z,100.00
2023-04-09T05:22:34.966Z,97.56
2023-04-09T05:25:04.854Z,96.93
2023-04-09T05:27:32.573Z,95.08
2023-04-09T05:30:02.568Z,96.07
2023-04-09T05:32:30.485Z,92.72
2023-04-09T05:34:58.177Z,88.07
2023-04-09T05:37:29.960Z,86.98
2023-04-09T05:39:58.003Z,84.43
2023-04-09T05:42:27.099Z,82.00
2023-04-09T05:44:58.789Z,79.90
2023-04-09T05:47:26.515Z,78.19
2023-04-09T05:49:54.295Z,76.32
2023-04-09T05:52:26.052Z,75.38
2023-04-09T05:54:53.932Z,75.62
2023-04-09T05:57:21.613Z,71.74
2023-04-09T05:59:54.559Z,69.21
2023-04-09T06:02:22.387Z,70.04
2023-04-09T06:04:50.722Z,71.81
2023-04-09T06:07:23.124Z,69.50
2023-04-09T06:09:51.043Z,70.04
2023-04-09T06:12:18.748Z,68.49
2023-04-09T06:14:51.882Z,67.05
2023-04-09T06:17:21.766Z,65.06
2023-04-09T06:19:49.500Z,65.65
2023-04-09T06:22:19.115Z,62.64
2023-04-09T06:24:48.964Z,62.93
2023-04-09T06:27:19.033Z,62.53
2023-04-09T06:29:48.601Z,63.05
2023-04-09T06:32:19.578Z,64.50
2023-04-09T06:34:48.292Z,64.06
2023-04-09T06:37:21.389Z,64.37
2023-04-09T06:40:00.562Z,63.62
2023-04-09T06:42:33.063Z,65.92
2023-04-09T06:45:01.092Z,63.79
2023-04-09T06:47:31.924Z,63.39
2023-04-09T06:50:01.615Z,62.92
2023-04-09T06:52:29.284Z,65.40
2023-04-09T06:54:57.211Z,62.96
2023-04-09T06:57:28.061Z,62.74
2023-04-09T06:59:55.764Z,62.05
2023-04-09T07:02:26.011Z,60.92
2023-04-09T07:04:57.082Z,61.49
2023-04-09T07:07:25.872Z,60.64
2023-04-09T07:09:54.548Z,59.53
2023-04-09T07:12:29.886Z,60.65
2023-04-09T07:15:00.073Z,61.49
2023-04-09T07:17:28.095Z,61.78
2023-04-09T07:19:59.198Z,62.55
2023-04-09T07:22:29.753Z,60.59
2023-04-09T07:24:57.669Z,61.65
2023-04-09T07:27:29.410Z,59.43
2023-04-09T07:30:00.490Z,60.06
2023-04-09T07:32:28.946Z,58.36
2023-04-09T07:34:59.485Z,60.79
2023-04-09T07:37:29.312Z,58.50
2023-04-09T07:39:57.097Z,58.35
2023-04-09T07:42:26.847Z,58.78
2023-04-09T07:44:57.666Z,58.23
2023-04-09T07:47:25.588Z,55.88
2023-04-09T07:49:55.186Z,57.78
2023-04-09T07:52:26.049Z,58.13
2023-04-09T07:54:53.826Z,55.78
2023-04-09T07:57:24.581Z,54.75
2023-04-09T07:59:52.437Z,52.97
2023-04-09T08:02:20.274Z,54.15
2023-04-09T08:04:50.071Z,54.31
2023-04-09T08:07:20.052Z,54.04
2023-04-09T08:09:49.109Z,55.27
2023-04-09T08:12:16.866Z,54.66
2023-04-09T08:14:44.943Z,54.21
2023-04-09T08:17:12.667Z,53.60
2023-04-09T08:19:44.904Z,51.94
2023-04-09T08:22:12.649Z,52.50
2023-04-09T08:24:40.377Z,51.14
2023-04-09T08:27:13.954Z,50.68
2023-04-09T08:29:42.637Z,51.04
2023-04-09T08:32:10.605Z,50.17
2023-04-09T08:34:40.823Z,52.73
2023-04-09T08:37:08.575Z,50.46
2023-04-09T08:39:36.844Z,51.69
2023-04-09T08:42:07.750Z,50.89
2023-04-09T08:44:37.131Z,53.25
2023-04-09T08:47:11.813Z,52.16
2023-04-09T08:49:41.067Z,50.96
2023-04-09T08:52:08.919Z,51.41
2023-04-09T08:54:40.893Z,50.67
2023-04-09T08:57:08.802Z,50.26
2023-04-09T08:59:37.978Z,50.62
2023-04-09T09:02:09.358Z,51.42
2023-04-09T09:04:47.716Z,52.54
2023-04-09T09:07:16.251Z,52.74
2023-04-09T09:09:54.291Z,52.31
2023-04-09T09:12:41.161Z,52.25
2023-04-09T09:15:29.050Z,50.84
2023-04-09T09:18:02.087Z,51.06
2023-04-09T09:20:30.224Z,49.88
2023-04-09T09:22:58.070Z,50.92
2023-04-09T09:25:54.675Z,47.87
2023-04-09T09:28:22.393Z,48.97
2023-04-09T09:30:51.695Z,47.29
2023-04-09T09:33:23.618Z,46.81
2023-04-09T09:35:54.029Z,46.76
2023-04-09T09:38:21.885Z,48.47
2023-04-09T09:40:52.639Z,44.46
2023-04-09T09:43:20.587Z,45.33
2023-04-09T09:45:49.058Z,44.58
2023-04-09T09:48:21.799Z,43.87
2023-04-09T09:50:52.958Z,42.24
2023-04-09T09:53:29.179Z,41.63
2023-04-09T09:56:01.534Z,39.75
2023-04-09T09:58:36.549Z,40.44
2023-04-09T10:01:09.465Z,36.67
2023-04-09T10:03:42.287Z,38.62
2023-04-09T10:06:11.132Z,36.06
2023-04-09T10:08:41.144Z,38.58
2023-04-09T10:11:11.162Z,38.34
2023-04-09T10:13:47.526Z,36.50
2023-04-09T10:16:18.676Z,37.82
2023-04-09T10:18:48.174Z,36.50
2023-04-09T10:21:25.207Z,35.17
2023-04-09T10:23:53.246Z,37.59
2023-04-09T10:26:27.744Z,33.88
2023-04-09T10:29:08.067Z,35.61
2023-04-09T10:32:08.463Z,35.53
2023-04-09T10:34:41.106Z,38.03
2023-04-09T10:37:12.673Z,38.09
2023-04-09T10:39:42.675Z,36.12
2023-04-09T10:42:17.700Z,36.13
2023-04-09T10:44:46.070Z,37.15
2023-04-09T10:47:33.019Z,39.16
2023-04-09T10:50:15.954Z,37.99
2023-04-09T10:52:44.574Z,37.92
2023-04-09T10:55:31.405Z,37.99
2023-04-09T10:58:03.369Z,35.05
2023-04-09T11:00:31.070Z,36.39
2023-04-09T11:03:20.861Z,35.78
2023-04-09T11:05:53.234Z,33.74
2023-04-09T11:08:22.366Z,34.40
2023-04-09T11:10:52.260Z,36.38
2023-04-09T11:13:21.936Z,36.49
2023-04-09T11:15:49.901Z,34.95
2023-04-09T11:18:21.842Z,37.32
2023-04-09T11:20:57.089Z,36.65
2023-04-09T11:23:25.560Z,34.86
2023-04-09T11:25:56.557Z,34.69
2023-04-09T11:28:25.424Z,36.23
2023-04-09T11:30:53.395Z,35.57
2023-04-09T11:33:23.551Z,36.69
2023-04-09T11:35:55.018Z,34.05
2023-04-09T11:38:22.741Z,33.98
2023-04-09T11:41:04.052Z,34.79
2023-04-09T11:43:31.857Z,34.81
2023-04-09T11:46:00.538Z,34.36
2023-04-09T11:48:31.789Z,35.26
2023-04-09T11:51:01.738Z,34.82
2023-04-09T11:53:32.498Z,33.85
2023-04-09T11:56:00.642Z,34.90
2023-04-09T11:58:28.587Z,34.40
2023-04-09T12:00:57.116Z,35.12
2023-04-09T12:03:30.341Z,34.70
2023-04-09T12:06:03.378Z,34.04
2023-04-09T12:08:34.594Z,35.17
2023-04-09T12:11:10.270Z,34.13
2023-04-09T12:13:42.830Z,31.75
2023-04-09T12:16:15.889Z,31.24
2023-04-09T12:18:43.786Z,31.29
2023-04-09T12:21:12.930Z,32.61
2023-04-09T12:23:42.770Z,35.36
2023-04-09T12:26:10.651Z,34.23
2023-04-09T12:28:38.400Z,37.55
2023-04-09T12:31:10.843Z,36.51
2023-04-09T12:33:40.423Z,34.46
2023-04-09T12:36:10.485Z,34.19
2023-04-09T12:38:41.508Z,34.93
2023-04-09T12:41:09.679Z,36.52
2023-04-09T12:43:37.545Z,36.58
2023-04-09T12:46:05.856Z,38.94
2023-04-09T12:48:33.930Z,39.05
2023-04-09T12:51:04.182Z,38.64
2023-04-09T12:53:35.943Z,37.83
2023-04-09T12:56:05.404Z,37.69
2023-04-09T12:58:33.395Z,38.96
2023-04-09T13:01:08.668Z,39.26
2023-04-09T13:03:36.797Z,37.13
2023-04-09T13:06:07.324Z,37.87
2023-04-09T13:08:36.932Z,37.32
2023-04-09T13:11:06.666Z,36.50
2023-04-09T13:13:34.611Z,36.54
2023-04-09T13:16:02.590Z,35.63
2023-04-09T13:18:32.559Z,35.92
2023-04-09T13:21:00.432Z,36.27
2023-04-09T13:23:30.037Z,32.70
2023-04-09T13:25:58.875Z,33.18
2023-04-09T13:28:28.062Z,33.17
2023-04-09T13:30:58.721Z,34.70
2023-04-09T13:33:26.634Z,32.87
2023-04-09T13:35:54.540Z,31.33
2023-04-09T13:38:24.234Z,31.39
2023-04-09T13:40:52.029Z,33.33
2023-04-09T13:43:29.680Z,33.50
2023-04-09T13:45:58.819Z,33.45
2023-04-09T13:48:28.683Z,33.10
2023-04-09T13:50:56.738Z,35.00
2023-04-09T13:53:25.219Z,36.07
2023-04-09T13:55:56.469Z,33.41
2023-04-09T13:58:26.296Z,34.02
2023-04-09T14:00:54.084Z,33.19
2023-04-09T14:03:23.443Z,30.72
2023-04-09T14:05:53.307Z,30.95
2023-04-09T14:08:21.430Z,31.39
2023-04-09T14:10:49.283Z,30.51
2023-04-09T14:13:17.205Z,32.59
2023-04-09T14:15:45.407Z,30.08
2023-04-09T14:18:20.321Z,31.85
2023-04-09T14:20:49.556Z,31.13
2023-04-09T14:23:17.315Z,31.28
2023-04-09T14:25:45.920Z,31.18
2023-04-09T14:28:13.695Z,33.29
2023-04-09T14:30:41.485Z,32.77
2023-04-09T14:33:15.081Z,31.43
2023-04-09T14:35:42.830Z,30.89
2023-04-09T14:38:11.992Z,32.77
2023-04-09T14:40:41.785Z,31.02
2023-04-09T14:43:09.541Z,30.82
2023-04-09T14:45:37.758Z,32.61
2023-04-09T14:48:07.770Z,30.23
2023-04-09T14:50:36.719Z,33.73
2023-04-09T14:53:07.604Z,34.87
2023-04-09T14:55:39.393Z,35.99
2023-04-09T14:58:08.273Z,37.17
2023-04-09T15:00:38.992Z,36.62
2023-04-09T15:03:09.237Z,35.75
2023-04-09T15:05:37.062Z,35.99
2023-04-09T15:08:05.348Z,34.95
2023-04-09T15:10:35.533Z,35.52
2023-04-09T15:13:04.624Z,37.33
2023-04-09T15:15:34.758Z,37.47
2023-04-09T15:18:06.036Z,37.65
2023-04-09T15:20:37.649Z,37.95
2023-04-09T15:23:05.590Z,37.56
2023-04-09T15:25:35.859Z,37.37
2023-04-09T15:28:07.913Z,38.98
2023-04-09T15:30:38.281Z,40.13
2023-04-09T15:33:10.060Z,38.60
2023-04-09T15:35:37.923Z,38.58
2023-04-09T15:38:05.815Z,38.68
2023-04-09T15:40:35.699Z,40.12
2023-04-09T15:43:04.734Z,39.61
2023-04-09T15:45:34.406Z,38.73
2023-04-09T15:48:05.191Z,38.06
2023-04-09T15:50:32.984Z,40.29
2023-04-09T15:53:02.669Z,41.49
2023-04-09T15:55:35.479Z,40.91
2023-04-09T15:58:05.093Z,40.05
2023-04-09T16:00:34.355Z,39.39
2023-04-09T16:03:02.079Z,38.44
2023-04-09T16:05:31.665Z,39.60
2023-04-09T16:08:01.642Z,39.44
2023-04-09T16:10:29.383Z,40.08
2023-04-09T16:13:01.106Z,40.94
2023-04-09T16:15:28.981Z,41.48
2023-04-09T16:17:58.216Z,40.75
2023-04-09T16:20:31.194Z,41.64
2023-04-09T16:22:58.951Z,42.08
2023-04-09T16:25:26.620Z,43.36
2023-04-09T16:27:58.322Z,43.30
2023-04-09T16:30:26.264Z,43.92
2023-04-09T16:32:54.038Z,42.82
2023-04-09T16:35:27.194Z,41.61
2023-04-09T16:37:54.922Z,42.72
2023-04-09T16:40:24.422Z,44.11
2023-04-09T16:42:54.242Z,45.86
2023-04-09T16:45:22.532Z,46.77
2023-04-09T16:47:53.779Z,48.18
2023-04-09T16:50:23.544Z,48.54
2023-04-09T16:52:51.530Z,49.09
2023-04-09T16:55:21.457Z,49.60
2023-04-09T16:57:49.445Z,50.06
2023-04-09T17:00:18.383Z,51.14
2023-04-09T17:02:46.934Z,50.89
2023-04-09T17:05:16.181Z,51.90
2023-04-09T17:07:45.219Z,51.43
2023-04-09T17:10:13.058Z,51.97
2023-04-09T17:12:40.976Z,53.26
2023-04-09T17:15:10.156Z,54.11
2023-04-09T17:17:38.189Z,54.12
2023-04-09T17:20:07.343Z,53.91
2023-04-09T17:22:35.691Z,54.73
2023-04-09T17:25:04.942Z,56.55
2023-04-09T17:27:32.795Z,56.61
2023-04-09T17:30:00.533Z,56.64
2023-04-09T17:32:28.301Z,57.38
2023-04-09T17:35:01.353Z,57.72
2023-04-09T17:37:29.717Z,59.05
2023-04-09T17:39:57.423Z,60.54
2023-04-09T17:42:30.888Z,62.81
2023-04-09T17:44:59.122Z,62.89
2023-04-09T17:47:27.331Z,63.91
2023-04-09T17:49:55.260Z,65.72
2023-04-09T17:52:23.184Z,67.01
2023-04-09T17:54:52.445Z,67.56
2023-04-09T17:57:20.434Z,69.02
2023-04-09T17:59:49.533Z,69.75
2023-04-09T18:02:17.470Z,71.44
2023-04-09T18:04:49.621Z,72.40
2023-04-09T18:07:17.432Z,72.84
2023-04-09T18:09:45.167Z,73.64
2023-04-09T18:12:16.900Z,75.13
2023-04-09T18:14:44.597Z,76.11
2023-04-09T18:17:15.194Z,76.58
2023-04-09T18:19:48.271Z,77.14
2023-04-09T18:22:16.543Z,77.86
2023-04-09T18:24:44.277Z,78.56
2023-04-09T18:27:16.168Z,78.44
2023-04-09T18:29:46.609Z,78.85
2023-04-09T18:32:15.542Z,79.94
2023-04-09T18:34:47.179Z,81.03
2023-04-09T18:37:15.212Z,82.25
2023-04-09T18:39:43.048Z,83.35
2023-04-09T18:42:15.305Z,83.91
2023-04-09T18:44:43.136Z,84.91
2023-04-09T18:47:11.839Z,85.53
2023-04-09T18:49:43.194Z,86.53
2023-04-09T18:52:11.058Z,86.37
2023-04-09T18:54:39.065Z,86.57
2023-04-09T18:57:07.576Z,87.83
2023-04-09T18:59:35.841Z,88.23
2023-04-09T19:02:04.765Z,89.32
2023-04-09T19:04:36.458Z,89.61
2023-04-09T19:07:06.619Z,88.62
2023-04-09T19:09:37.578Z,88.80
2023-04-09T19:12:08.662Z,89.86
2023-04-09T19:14:36.859Z,90.62
2023-04-09T19:17:06.628Z,89.03
2023-04-09T19:19:34.339Z,90.70
2023-04-09T19:22:02.162Z,91.60
2023-04-09T19:24:33.544Z,92.10
2023-04-09T19:27:08.070Z,92.94
2023-04-09T19:29:36.276Z,92.79
2023-04-09T19:32:04.279Z,93.55
2023-04-09T19:34:32.077Z,94.55
2023-04-09T19:37:04.349Z,95.47
2023-04-09T19:39:33.463Z,94.67
2023-04-09T19:42:02.714Z,95.06
2023-04-09T19:44:33.010Z,96.12
2023-04-09T19:47:00.864Z,97.82
2023-04-09T19:49:29.332Z,98.71
2023-04-09T19:52:01.291Z,99.49
2023-04-09T19:54:29.008Z,98.73
2023-04-09T19:56:58.093Z,98.92
2023-04-09T19:59:30.926Z,99.68
2023-04-09T20:01:59.887Z,99.45
2023-04-09T20:04:30.183Z,100.00
2023-04-09T20:07:00.326Z,100.00
2023-04-09T20:09:29.144Z,100.00
2023-04-09T20:12:06.148Z,100.00
2023-04-09T20:14:38.130Z,100.00
2023-04-09T20:17:06.391Z,100.00
2023-04-09T20:19:44.356Z,100.00
2023-04-09T20:22:12.263Z,100.00
2023-04-09T20:24:40.216Z,100.00
2023-04-09T20:27:13.326Z,100.00
2023-04-09T20:29:41.093Z,100.00
2023-04-09T20:32:08.932Z,100.00
2023-04-09T20:34:38.929Z,100.00
2023-04-09T20:37:06.778Z,100.00
2023-04-09T20:39:34.508Z,100.00
2023-04-09T20:42:02.435Z,100.00
2023-04-09T20:44:31.819Z,100.00
2023-04-09T20:47:01.691Z,100.00
2023-04-09T20:49:29.455Z,100.00
2023-04-09T20:51:57.159Z,100.00
2023-04-09T20:54:27.550Z,100.00
2023-04-09T20:56:55.333Z,100.00
2023-04-09T20:59:23.515Z,100.00
2023-04-09T21:01:55.413Z,100.00
2023-04-09T21:04:24.130Z,100.00
2023-04-09T21:06:51.984Z,100.00
2023-04-09T21:09:21.840Z,100.00
2023-04-09T21:11:49.620Z,100.00
2023-04-09T21:14:17.312Z,100.00
2023-04-09T21:16:47.518Z,100.00
2023-04-09T21:19:18.564Z,100.00
2023-04-09T21:21:46.347Z,100.00
2023-04-09T21:24:16.949Z,100.00
2023-04-09T21:26:51.652Z,100.00
2023-04-09T21:29:22.339Z,100.00
2023-04-09T21:31:52.066Z,100.00
2023-04-09T21:34:21.282Z,100.00
2023-04-09T21:36:51.255Z,100.00
2023-04-09T21:39:20.909Z,100.00
2023-04-09T21:41:48.611Z,100.00
2023-04-09T21:44:19.012Z,100.00
2023-04-09T21:46:49.452Z,100.00
2023-04-09T21:49:17.299Z,100.00
2023-04-09T21:51:48.587Z,100.00
2023-04-09T21:54:18.139Z,100.00
2023-04-09T21:56:46.381Z,100.00
2023-04-09T21:59:16.464Z,100.00
2023-04-09T22:01:49.430Z,100.00
2023-04-09T22:04:18.137Z,100.00
2023-04-09T22:06:47.907Z,100.00
2023-04-09T22:09:15.588Z,100.00
2023-04-09T22:11:46.408Z,100.00
2023-04-09T22:14:17.161Z,100.00
2023-04-09T22:16:44.910Z,100.00
2023-04-09T22:19:15.373Z,100.00
2023-04-09T22:21:44.776Z,100.00
2023-04-09T22:24:15.446Z,100.00
2023-04-09T22:26:48.685Z,100.00
2023-04-09T22:29:16.625Z,100.00
2023-04-09T22:31:44.555Z,100.00
2023-04-09T22:34:21.184Z,100.00
2023-04-09T22:36:49.741Z,100.00
2023-04-09T22:39:23.646Z,100.00
2023-04-09T22:41:51.337Z,100.00
2023-04-09T22:44:19.108Z,100.00
2023-04-09T22:46:50.841Z,100.00
2023-04-09T22:49:20.728Z,100.00
2023-04-09T22:51:48.443Z,100.00
2023-04-09T22:54:18.041Z,100.00
2023-04-09T22:56:48.890Z,100.00
2023-04-09T22:59:17.065Z,100.00
2023-04-09T23:01:47.217Z,100.00
2023-04-09T23:04:19.838Z,100.00
2023-04-09T23:06:47.508Z,100.00
2023-04-09T23:09:15.260Z,100.00
2023-04-09T23:11:44.932Z,100.00
2023-04-09T23:14:14.370Z,100.00
2023-04-09T23:16:42.110Z,100.00
2023-04-09T23:19:14.583Z,100.00
2023-04-09T23:21:42.267Z,100.00
2023-04-09T23:24:09.942Z,100.00
2023-04-09T23:26:41.694Z,100.00
2023-04-09T23:29:09.373Z,100.00
2023-04-09T23:31:38.419Z,100.00
2023-04-09T23:34:10.180Z,100.00
2023-04-09T23:36:37.900Z,100.00
2023-04-09T23:39:05.617Z,100.00
2023-04-09T23:41:38.620Z,100.00
2023-04-09T23:44:06.313Z,100.00
2023-04-09T23:46:34.088Z,100.00
2023-04-09T23:49:06.843Z,100.00
2023-04-09T23:51:34.510Z,100.00
2023-04-09T23:54:03.071Z,100.00
2023-04-09T23:56:34.780Z,100.00
2023-04-09T23:59:02.693Z,100.00
